Time;durP1;ratioP1;P1;durP2;ratioP2;P2;SDS_P1;SDS_P2;PMS_P1;PMS_P2;Temp;Humidity;BMP_temperature;BMP_pressure;BME280_temperature;BME280_humidity;BME280_pressure;Samples;Min_cycle;Max_cycle;Signal;HPM_P1;HPM_P2
2022/06/28 00:01:57;;;;;;;7.07;4.10;;;;;;;15.08;85.87;102097.38;5017165;28;20087;-58
2022/06/28 00:04:23;;;;;;;8.02;4.20;;;;;;;14.97;85.75;102097.06;5016868;28;20033;-56
2022/06/28 00:06:49;;;;;;;4.93;3.53;;;;;;;14.97;85.67;102097.06;5019932;28;20029;-54
2022/06/28 00:09:14;;;;;;;7.88;4.30;;;;;;;15.02;85.54;102089.44;5024520;28;20039;-58
2022/06/28 00:11:42;;;;;;;5.00;4.22;;;;;;;14.92;85.50;102096.03;5018134;28;20042;-58
2022/06/28 00:16:53;;;;;;;8.20;4.30;;;;;;;14.93;85.60;102097.81;5014705;28;20069;-55
2022/06/28 00:19:19;;;;;;;6.30;4.40;;;;;;;14.97;85.57;102091.88;5015631;28;20049;-54
2022/06/28 00:21:45;;;;;;;5.88;4.40;;;;;;;15.00;85.49;102094.56;5019233;28;20044;-57
2022/06/28 00:24:11;;;;;;;5.47;4.63;;;;;;;14.94;85.86;102099.56;5017980;28;20029;-58
2022/06/28 00:26:36;;;;;;;6.25;4.20;;;;;;;14.90;85.69;102092.53;5015931;28;20454;-58
2022/06/28 00:29:02;;;;;;;8.32;4.45;;;;;;;14.91;85.85;102089.09;5019587;28;20600;-58
2022/06/28 00:31:27;;;;;;;6.78;4.13;;;;;;;14.87;85.73;102100.22;5021266;28;20033;-58
2022/06/28 00:33:53;;;;;;;6.35;4.45;;;;;;;14.85;85.87;102099.28;5021815;28;20057;-56
2022/06/28 00:36:18;;;;;;;7.53;4.15;;;;;;;14.82;85.74;102099.22;5019853;28;20390;-58
2022/06/28 00:38:43;;;;;;;4.80;4.30;;;;;;;14.81;85.75;102105.22;5018395;28;20042;-56
2022/06/28 00:41:09;;;;;;;9.00;4.60;;;;;;;14.77;85.49;102103.34;5013960;28;20037;-58
2022/06/28 00:43:35;;;;;;;5.53;4.15;;;;;;;14.73;85.92;102107.56;5015919;28;20045;-54
2022/06/28 00:46:02;;;;;;;5.15;4.30;;;;;;;14.66;86.17;102104.72;5017036;28;20432;-58
2022/06/28 00:48:28;;;;;;;5.57;4.40;;;;;;;14.66;85.71;102105.63;5016381;28;20029;-57
2022/06/28 00:50:53;;;;;;;6.85;4.43;;;;;;;14.65;85.50;102106.44;5018801;28;20466;-58
2022/06/28 00:53:19;;;;;;;5.07;4.50;;;;;;;14.61;85.89;102107.19;5020549;28;20025;-58
2022/06/28 00:55:45;;;;;;;4.75;4.13;;;;;;;14.58;86.74;102101.03;5014627;28;20049;-57
2022/06/28 00:58:13;;;;;;;7.35;4.85;;;;;;;14.56;86.70;102100.09;5012369;28;20036;-58
2022/06/28 01:00:44;;;;;;;8.93;4.63;;;;;;;14.60;86.31;102104.53;5016829;28;20071;-58
2022/06/28 01:03:12;;;;;;;6.00;4.20;;;;;;;14.60;86.39;102109.72;5017398;28;20041;-54
2022/06/28 01:05:40;;;;;;;5.10;4.40;;;;;;;14.55;86.43;102112.16;5016228;28;20041;-57
2022/06/28 01:08:06;;;;;;;6.17;4.33;;;;;;;14.59;86.32;102106.25;5016671;28;20079;-58
2022/06/28 01:10:32;;;;;;;6.30;4.68;;;;;;;14.54;86.37;102107.81;5016907;28;20033;-58
2022/06/28 01:12:58;;;;;;;8.75;4.53;;;;;;;14.50;86.85;102105.97;5019039;28;20099;-55
2022/06/28 01:15:23;;;;;;;7.88;5.45;;;;;;;14.50;86.93;102111.16;5013780;28;20034;-58
2022/06/28 01:17:49;;;;;;;5.43;4.78;;;;;;;14.50;86.62;102111.16;5008537;28;20081;-58
2022/06/28 01:20:14;;;;;;;8.55;4.80;;;;;;;14.45;86.63;102108.38;5016480;28;20124;-58
2022/06/28 01:22:41;;;;;;;7.80;4.50;;;;;;;14.43;86.72;102112.63;5015839;28;20733;-57
2022/06/28 01:25:08;;;;;;;5.65;5.03;;;;;;;14.40;87.33;102116.81;5012202;28;20033;-55
2022/06/28 01:27:34;;;;;;;6.45;5.07;;;;;;;14.43;86.77;102117.78;5017952;28;20037;-57
2022/06/28 01:30:02;;;;;;;8.23;5.05;;;;;;;14.38;86.84;102114.19;5017747;28;20041;-57
2022/06/28 01:32:28;;;;;;;7.38;4.88;;;;;;;14.35;87.04;102118.38;5019179;28;20041;-58
2022/06/28 01:34:54;;;;;;;6.18;4.97;;;;;;;14.31;86.73;102122.56;5017582;28;20037;-57
2022/06/28 01:37:19;;;;;;;5.68;4.80;;;;;;;14.30;86.83;102125.97;5015477;28;20121;-58
2022/06/28 01:39:44;;;;;;;7.10;5.07;;;;;;;14.29;86.74;102125.94;5018611;28;20040;-55
2022/06/28 01:42:10;;;;;;;5.50;4.88;;;;;;;14.25;86.61;102127.53;5018148;28;20061;-58
2022/06/28 01:44:36;;;;;;;6.25;5.00;;;;;;;14.26;86.53;102128.41;5017632;28;20021;-57
2022/06/28 01:47:05;;;;;;;6.30;5.07;;;;;;;14.21;86.95;102129.16;5024012;28;20385;-58
2022/06/28 01:49:31;;;;;;;;;;;;;;;14.46;85.62;102127.38;5021997;28;20028;-58
2022/06/28 01:51:56;;;;;;;5.88;4.78;;;;;;;14.25;86.58;102137.88;5021292;28;19920;-58
2022/06/28 01:54:21;;;;;;;9.82;4.90;;;;;;;14.19;86.56;102129.91;5019378;28;20044;-58
2022/06/28 01:56:47;;;;;;;5.35;4.75;;;;;;;14.16;86.83;102129.84;5023436;28;20026;-58
2022/06/28 01:59:12;;;;;;;6.03;4.90;;;;;;;14.18;87.17;102130.75;5016153;28;20518;-56
2022/06/28 02:01:38;;;;;;;8.52;5.18;;;;;;;14.12;86.79;102130.53;5021899;28;20033;-58
2022/06/28 02:04:25;;;;;;;7.15;4.80;;;;;;;14.19;86.96;102128.22;5020215;28;20041;-58
2022/06/28 02:06:51;;;;;;;7.72;5.40;;;;;;;14.10;87.22;102130.50;5022649;28;20485;-59
2022/06/28 02:09:16;;;;;;;12.48;5.25;;;;;;;14.18;86.81;102138.50;5015198;28;20060;-57
2022/06/28 02:11:42;;;;;;;7.38;5.22;;;;;;;14.10;86.77;102134.81;5015475;28;21309;-57
2022/06/28 02:14:08;;;;;;;6.20;4.85;;;;;;;14.03;87.00;102141.47;5016008;28;20029;-58
2022/06/28 02:16:34;;;;;;;6.63;5.15;;;;;;;14.00;86.94;102141.34;5015605;28;20065;-58
2022/06/28 02:18:59;;;;;;;6.85;5.05;;;;;;;13.98;87.17;102144.72;5018214;28;20080;-58
2022/06/28 02:21:25;;;;;;;5.90;5.20;;;;;;;14.06;87.13;102146.75;5016594;28;20046;-58
2022/06/28 02:23:51;;;;;;;6.80;5.18;;;;;;;13.97;87.25;102141.28;5019439;28;20124;-58
2022/06/28 02:26:16;;;;;;;6.63;5.18;;;;;;;13.98;87.35;102150.78;5014903;28;20080;-58
2022/06/28 02:28:42;;;;;;;6.43;5.15;;;;;;;13.96;87.21;102160.19;5022306;28;20038;-59
2022/06/28 02:31:13;;;;;;;8.38;5.20;;;;;;;13.95;87.08;102156.75;5022285;28;20044;-58
2022/06/28 02:33:39;;;;;;;6.70;5.38;;;;;;;13.86;86.99;102158.09;5023022;28;20061;-57
2022/06/28 02:41:33;;;;;;;6.57;5.57;;;;;;;13.90;87.06;102166.03;5013666;28;20493;-59
2022/06/28 02:43:58;;;;;;;9.88;5.55;;;;;;;13.81;87.01;102163.09;5020301;28;20034;-58
2022/06/28 02:46:24;;;;;;;9.60;5.22;;;;;;;13.80;87.09;102163.94;5018745;28;20092;-58
2022/06/28 02:48:49;;;;;;;6.35;5.55;;;;;;;13.80;86.97;102173.41;5023184;28;20029;-57
2022/06/28 02:51:15;;;;;;;8.20;5.18;;;;;;;13.74;87.20;102176.66;5014595;28;20395;-58
2022/06/28 02:53:40;;;;;;;6.47;5.20;;;;;;;13.80;87.01;102174.28;5021953;28;20133;-57
2022/06/28 02:56:06;;;;;;;9.85;5.72;;;;;;;13.76;87.22;102187.03;5017597;28;20087;-58
2022/06/28 02:58:31;;;;;;;6.53;5.63;;;;;;;13.78;86.92;102198.34;5018199;28;20515;-58
2022/06/28 03:00:57;;;;;;;6.80;5.10;;;;;;;13.73;87.11;102193.00;5011166;28;20030;-58
2022/06/28 03:03:22;;;;;;;9.77;5.60;;;;;;;13.78;87.13;102188.88;5016534;28;20390;-58
2022/06/28 03:05:48;;;;;;;8.23;5.40;;;;;;;13.77;86.87;102191.38;5019052;28;20030;-58
2022/06/28 03:08:13;;;;;;;5.93;5.32;;;;;;;13.78;86.73;102198.34;5016827;28;20785;-57
2022/06/28 03:10:39;;;;;;;7.22;5.40;;;;;;;13.71;86.80;102198.91;5014798;28;20034;-58
2022/06/28 03:13:04;;;;;;;7.95;5.40;;;;;;;13.65;86.99;102202.16;5024129;28;20022;-57
2022/06/28 03:15:30;;;;;;;7.18;5.35;;;;;;;13.62;86.84;102204.63;5019404;28;20406;-56
2022/06/28 03:17:55;;;;;;;9.25;5.68;;;;;;;13.69;86.72;102204.03;5014979;28;20037;-58
2022/06/28 03:20:20;;;;;;;8.02;5.65;;;;;;;13.63;87.46;102208.97;5015566;28;20453;-56
2022/06/28 03:22:46;;;;;;;8.38;5.40;;;;;;;13.62;86.84;102204.63;5021737;28;20061;-58
2022/06/28 03:25:11;;;;;;;5.82;5.20;;;;;;;13.62;87.10;102209.81;5017516;28;20033;-58
2022/06/28 03:27:37;;;;;;;6.97;5.13;;;;;;;13.64;86.52;102209.03;5017861;28;20453;-58
2022/06/28 03:30:03;;;;;;;6.30;5.18;;;;;;;13.61;86.81;102203.75;5020010;28;20116;-58
2022/06/28 03:32:29;;;;;;;7.95;5.57;;;;;;;13.60;86.62;102211.47;5026428;28;20061;-58
2022/06/28 03:34:54;;;;;;;7.70;5.40;;;;;;;13.54;86.72;102217.28;5019829;28;20181;-58
2022/06/28 03:37:20;;;;;;;10.80;5.20;;;;;;;13.56;86.66;102222.50;5020458;28;20025;-56
2022/06/28 03:39:45;;;;;;;10.52;4.95;;;;;;;13.54;87.08;102224.16;5017677;28;20405;-58
2022/06/28 03:42:11;;;;;;;11.27;4.90;;;;;;;13.56;87.22;102225.09;5014414;28;20394;-58
2022/06/28 03:44:36;;;;;;;6.63;4.78;;;;;;;13.55;86.85;102218.16;5018686;28;20426;-57
2022/06/28 03:47:03;;;;;;;8.18;4.90;;;;;;;13.53;87.08;102224.94;5017492;28;20022;-59
2022/06/28 03:49:28;;;;;;;5.97;4.85;;;;;;;13.56;87.00;102227.66;5018972;28;20473;-58
2022/06/28 03:51:53;;;;;;;6.18;5.00;;;;;;;13.58;86.01;102232.06;5019092;28;20034;-58
2022/06/28 03:54:19;;;;;;;7.90;4.38;;;;;;;13.52;85.91;102225.78;5019453;28;20044;-57
2022/06/28 03:56:44;;;;;;;6.95;4.90;;;;;;;13.55;86.38;102228.50;5015488;28;20124;-58
2022/06/28 03:59:10;;;;;;;9.88;4.47;;;;;;;13.44;86.24;102224.63;5018697;28;20112;-56
2022/06/28 04:01:35;;;;;;;6.95;4.32;;;;;;;13.45;86.74;102226.38;5012585;28;20457;-58
2022/06/28 04:04:01;;;;;;;7.70;4.82;;;;;;;13.44;86.79;102219.44;5014629;28;20471;-58
2022/06/28 04:06:26;;;;;;;7.22;4.80;;;;;;;13.40;86.90;102223.59;5017200;28;20038;-56
2022/06/28 04:08:52;;;;;;;9.93;4.80;;;;;;;13.40;86.58;102228.78;5019398;28;20050;-58
2022/06/28 04:11:17;;;;;;;9.32;4.40;;;;;;;13.44;86.38;102229.78;5014048;28;20053;-56
2022/06/28 04:13:45;;;;;;;5.75;4.25;;;;;;;13.45;86.41;102229.84;5017935;28;20115;-57
2022/06/28 04:16:11;;;;;;;5.50;4.00;;;;;;;13.40;85.96;102231.34;5017266;28;20021;-58
2022/06/28 04:18:36;;;;;;;8.32;3.92;;;;;;;13.41;86.67;102231.44;5015872;28;20044;-57
2022/06/28 04:21:02;;;;;;;6.45;3.88;;;;;;;13.41;86.45;102233.16;5018792;28;20044;-58
2022/06/28 04:23:28;;;;;;;10.15;3.70;;;;;;;13.41;86.52;102230.56;5017547;28;20371;-56
2022/06/28 04:25:54;;;;;;;9.85;4.15;;;;;;;13.47;86.20;102235.97;5012428;28;20040;-57
2022/06/28 04:28:19;;;;;;;7.97;4.00;;;;;;;13.46;85.93;102236.75;5016981;28;20057;-58
2022/06/28 04:30:45;;;;;;;7.30;3.67;;;;;;;13.51;85.65;102232.66;5015424;28;20474;-58
2022/06/28 04:33:10;;;;;;;8.25;4.72;;;;;;;13.45;86.17;102237.59;5020148;28;20152;-57
2022/06/28 04:35:36;;;;;;;12.93;4.45;;;;;;;13.46;86.25;102241.94;5015257;28;20033;-58
2022/06/28 04:38:01;;;;;;;8.15;3.80;;;;;;;13.49;85.65;102229.13;5017614;28;20033;-58
2022/06/28 04:40:27;;;;;;;6.50;3.80;;;;;;;13.50;85.83;102238.66;5014212;28;20036;-58
2022/06/28 04:42:53;;;;;;;7.95;4.10;;;;;;;13.50;86.40;102235.19;5008819;28;20055;-58
2022/06/28 04:45:18;;;;;;;6.57;3.88;;;;;;;13.58;85.86;102233.75;5002469;28;20509;-58
2022/06/28 04:47:44;;;;;;;9.02;3.85;;;;;;;13.60;85.69;102233.00;5008289;28;20025;-58
2022/06/28 04:50:09;;;;;;;6.95;3.58;;;;;;;13.60;85.62;102237.31;5014544;28;20418;-58
2022/06/28 04:52:36;;;;;;;7.30;3.53;;;;;;;13.60;86.28;102235.59;5011807;28;20065;-56
2022/06/28 04:55:02;;;;;;;9.40;4.07;;;;;;;13.65;86.73;102231.50;5012548;28;20441;-51
2022/06/28 04:57:27;;;;;;;6.50;3.50;;;;;;;13.71;86.34;102230.84;5013411;28;20108;-55
2022/06/28 04:59:53;;;;;;;10.32;3.30;;;;;;;13.78;85.93;102240.56;5010354;28;20029;-56
2022/06/28 05:02:18;;;;;;;7.40;3.65;;;;;;;13.85;85.27;102242.56;5010132;28;21659;-53
2022/06/28 05:04:43;;;;;;;7.22;3.25;;;;;;;13.89;85.79;102247.03;5010648;28;20033;-55
2022/06/28 05:07:09;;;;;;;4.40;3.10;;;;;;;13.94;85.56;102240.28;5017805;28;20374;-56
2022/06/28 05:09:34;;;;;;;8.75;3.42;;;;;;;13.98;85.30;102237.81;5012028;28;20383;-56
2022/06/28 05:11:59;;;;;;;7.43;3.30;;;;;;;14.03;85.45;102231.13;5013201;28;20037;-56
2022/06/28 05:14:26;;;;;;;7.72;3.70;;;;;;;14.11;84.56;102242.59;5014844;28;20030;-57
2022/06/28 05:16:52;;;;;;;6.35;3.25;;;;;;;14.17;85.36;102242.81;5011920;28;20074;-58
2022/06/28 05:19:17;;;;;;;5.60;3.25;;;;;;;14.23;85.10;102248.22;5012851;28;20050;-57
2022/06/28 05:21:43;;;;;;;6.78;3.00;;;;;;;14.25;84.52;102233.59;5018075;28;20671;-58
2022/06/28 05:24:08;;;;;;;9.32;3.65;;;;;;;14.34;83.79;102241.72;5015493;28;20037;-57
2022/06/28 05:26:34;;;;;;;6.97;3.50;;;;;;;14.37;84.36;102239.22;5015160;28;20034;-55
2022/06/28 05:29:00;;;;;;;9.10;3.40;;;;;;;14.42;83.96;102240.25;5017100;28;20033;-56
2022/06/28 05:31:25;;;;;;;10.20;3.58;;;;;;;14.46;83.25;102225.72;5019446;28;20055;-57
2022/06/28 05:33:51;;;;;;;6.68;3.00;;;;;;;14.55;83.25;102226.03;5017770;28;20564;-56
2022/06/28 05:36:16;;;;;;;11.20;3.55;;;;;;;14.62;82.91;102227.13;5024658;28;20458;-57
2022/06/28 05:38:42;;;;;;;9.50;3.35;;;;;;;14.68;83.36;102233.41;5027967;28;20022;-56
2022/06/28 05:41:09;;;;;;;8.98;3.17;;;;;;;14.72;82.71;102230.06;5020198;28;20033;-57
2022/06/28 05:43:35;;;;;;;8.93;3.58;;;;;;;14.77;82.24;102227.66;5021175;28;20436;-57
2022/06/28 05:46:00;;;;;;;9.32;2.80;;;;;;;14.84;82.01;102227.00;5020451;28;20039;-56
2022/06/28 05:48:26;;;;;;;11.77;3.22;;;;;;;14.91;83.60;102230.69;5020723;28;20136;-57
2022/06/28 05:50:52;;;;;;;10.40;4.03;;;;;;;14.97;82.49;102218.78;5016912;28;20077;-58
2022/06/28 05:53:17;;;;;;;9.98;3.30;;;;;;;15.03;81.24;102215.53;5022615;28;20029;-57
2022/06/28 05:55:43;;;;;;;8.65;3.22;;;;;;;15.11;81.31;102219.25;5023955;28;20045;-56
2022/06/28 05:58:08;;;;;;;10.00;2.95;;;;;;;15.16;80.88;102220.25;5019930;28;20166;-56
2022/06/28 06:00:37;;;;;;;11.43;3.40;;;;;;;15.23;80.38;102223.94;5023968;28;20379;-55
2022/06/28 06:03:02;;;;;;;10.85;3.30;;;;;;;15.33;81.28;102212.13;5021026;28;20041;-57
2022/06/28 06:05:28;;;;;;;10.95;2.92;;;;;;;15.39;80.43;102208.00;5020364;28;20033;-56
2022/06/28 06:07:53;;;;;;;10.18;3.05;;;;;;;15.46;79.57;102219.41;5016219;28;20117;-57
2022/06/28 06:10:19;;;;;;;10.18;3.10;;;;;;;15.49;79.34;102224.72;5021379;28;20062;-58
2022/06/28 06:12:44;;;;;;;20.42;3.08;;;;;;;15.62;78.53;102231.13;5017459;28;20587;-57
2022/06/28 06:15:10;;;;;;;7.53;2.83;;;;;;;15.65;78.34;102228.63;5021303;28;20124;-57
2022/06/28 06:17:35;;;;;;;12.43;3.00;;;;;;;15.71;78.77;102223.63;5019739;28;20037;-54
2022/06/28 06:20:02;;;;;;;9.90;3.10;;;;;;;15.77;78.74;102224.72;5021181;28;20041;-57
2022/06/28 06:22:28;;;;;;;12.85;3.05;;;;;;;15.96;77.98;102220.03;5020151;28;20040;-55
2022/06/28 06:24:53;;;;;;;10.98;3.47;;;;;;;15.96;77.71;102226.09;5020195;28;20025;-58
2022/06/28 06:27:19;;;;;;;14.43;3.10;;;;;;;16.05;77.97;102228.06;5020759;28;20030;-58
2022/06/28 06:29:44;;;;;;;6.78;2.80;;;;;;;16.08;77.90;102229.03;5023732;28;20091;-59
2022/06/28 06:32:09;;;;;;;9.98;2.85;;;;;;;16.20;77.76;102235.38;5019542;28;20645;-58
2022/06/28 06:34:35;;;;;;;11.80;2.97;;;;;;;16.35;76.82;102240.97;5020243;28;20037;-58
2022/06/28 06:37:00;;;;;;;11.05;3.33;;;;;;;16.41;77.81;102238.53;5016745;28;20537;-57
2022/06/28 06:39:26;;;;;;;12.35;3.33;;;;;;;16.52;77.95;102233.63;5018252;28;20045;-58
2022/06/28 06:41:51;;;;;;;12.40;2.90;;;;;;;16.58;77.70;102238.97;5023444;28;20426;-57
2022/06/28 06:44:16;;;;;;;9.35;2.92;;;;;;;16.59;75.89;102232.94;5017647;28;20064;-58
2022/06/28 06:46:42;;;;;;;12.73;3.22;;;;;;;16.69;76.14;102247.03;5028295;28;20402;-58
2022/06/28 06:49:09;;;;;;;15.02;2.83;;;;;;;16.73;75.16;102248.88;5022185;28;20037;-57
2022/06/28 06:51:34;;;;;;;12.15;2.83;;;;;;;16.81;75.21;102248.25;5017047;28;20042;-57
2022/06/28 06:54:00;;;;;;;11.65;2.90;;;;;;;16.89;74.38;102245.84;5021109;28;20029;-58
2022/06/28 06:56:25;;;;;;;9.50;2.70;;;;;;;16.98;74.44;102246.03;5023212;28;20122;-58
2022/06/28 06:58:51;;;;;;;13.82;3.03;;;;;;;17.04;72.61;102238.38;5024735;28;20383;-56
2022/06/28 07:01:16;;;;;;;11.30;2.60;;;;;;;17.13;73.79;102246.41;5022941;28;20035;-56
2022/06/28 07:03:44;;;;;;;10.82;2.63;;;;;;;17.27;74.14;102248.44;5017298;28;20030;-58
2022/06/28 07:06:13;;;;;;;9.00;2.50;;;;;;;17.25;71.19;102255.34;5018531;28;20069;-57
2022/06/28 07:08:39;;;;;;;;;;;;;;;17.44;73.23;102249.69;5016286;28;20156;-58
2022/06/28 07:11:05;;;;;;;9.60;2.33;;;;;;;17.52;69.11;102250.72;5016214;28;19996;-58
2022/06/28 07:13:30;;;;;;;7.32;2.20;;;;;;;17.56;70.27;102260.38;5020936;28;20044;-58
2022/06/28 07:15:56;;;;;;;8.95;1.90;;;;;;;17.61;68.77;102257.88;5023543;28;20402;-58
2022/06/28 07:18:21;;;;;;;7.43;1.70;;;;;;;17.76;67.94;102262.53;5022729;28;20041;-58
2022/06/28 07:20:47;;;;;;;10.43;2.10;;;;;;;17.83;69.79;102259.22;5013319;28;20030;-58
2022/06/28 07:23:12;;;;;;;10.02;2.10;;;;;;;17.87;67.83;102256.72;5017892;28;20035;-58
2022/06/28 07:25:37;;;;;;;7.80;1.60;;;;;;;17.98;68.76;102259.53;5020702;28;20059;-58
2022/06/28 07:28:03;;;;;;;9.35;2.10;;;;;;;18.05;69.04;102256.19;5018328;28;20072;-58
2022/06/28 07:30:28;;;;;;;8.68;1.98;;;;;;;18.10;65.28;102261.50;5016007;28;20029;-58
2022/06/28 07:32:54;;;;;;;10.77;2.10;;;;;;;18.16;65.56;102262.50;5015704;28;20028;-58
2022/06/28 07:35:24;;;;;;;8.05;1.80;;;;;;;18.30;67.61;102260.13;5018522;28;20037;-58
2022/06/28 07:37:50;;;;;;;10.70;1.77;;;;;;;18.37;67.58;102267.22;5026051;28;20049;-58
2022/06/28 07:40:15;;;;;;;10.68;2.25;;;;;;;18.42;67.52;102264.69;5021982;28;20064;-58
2022/06/28 07:42:41;;;;;;;11.25;2.17;;;;;;;18.44;64.05;102261.28;5015648;28;20029;-57
2022/06/28 07:45:06;;;;;;;7.22;1.60;;;;;;;18.54;63.73;102256.22;5024524;28;20401;-59
2022/06/28 07:47:31;;;;;;;10.57;2.20;;;;;;;18.59;66.19;102259.78;5017645;28;20120;-57
2022/06/28 07:52:42;;;;;;;9.70;2.00;;;;;;;18.73;63.92;102250.50;4991789;28;20041;-58
2022/06/28 07:55:10;;;;;;;5.72;1.65;;;;;;;18.83;63.51;102261.97;5019261;28;20029;-58
2022/06/28 07:57:36;;;;;;;8.07;1.88;;;;;;;18.94;63.58;102263.03;5017023;28;20040;-58
2022/06/28 08:00:04;;;;;;;8.50;1.75;;;;;;;18.97;62.49;102252.63;5019635;28;20025;-57
2022/06/28 08:02:29;;;;;;;7.55;1.73;;;;;;;19.05;63.42;102248.44;5018141;28;20033;-58
2022/06/28 08:04:55;;;;;;;8.05;1.50;;;;;;;19.14;61.85;102242.47;5018085;28;20044;-58
2022/06/28 08:07:21;;;;;;;10.35;1.80;;;;;;;19.21;61.69;102245.16;5022016;28;20035;-58
2022/06/28 08:09:46;;;;;;;8.98;1.67;;;;;;;19.27;63.84;102250.47;5017190;28;20057;-58
2022/06/28 08:12:12;;;;;;;8.93;1.50;;;;;;;19.26;60.86;102240.91;5016962;28;20061;-59
2022/06/28 08:14:37;;;;;;;9.88;1.70;;;;;;;19.34;60.89;102241.00;5015453;28;20044;-59
2022/06/28 08:17:04;;;;;;;6.75;1.85;;;;;;;19.40;62.37;102243.69;5016818;28;20021;-59
2022/06/28 08:19:29;;;;;;;7.50;1.58;;;;;;;19.51;63.40;102238.63;5020563;28;20477;-58
2022/06/28 08:21:54;;;;;;;9.80;1.75;;;;;;;19.62;63.42;102236.19;5021032;28;20080;-56
2022/06/28 08:24:20;;;;;;;7.63;1.98;;;;;;;19.73;63.38;102240.69;5018723;28;20552;-58
2022/06/28 08:26:46;;;;;;;7.32;1.60;;;;;;;19.77;60.54;102242.44;5019448;28;20045;-58
2022/06/28 08:29:13;;;;;;;6.82;1.40;;;;;;;19.86;59.99;102241.72;5016651;28;20101;-58
2022/06/28 08:31:38;;;;;;;7.75;1.50;;;;;;;19.98;58.59;102233.13;5018255;28;20080;-59
2022/06/28 08:34:04;;;;;;;4.40;1.20;;;;;;;19.97;57.62;102236.63;5023188;28;20489;-58
2022/06/28 08:36:29;;;;;;;7.13;2.00;;;;;;;20.01;56.69;102227.94;5017580;28;20405;-59
2022/06/28 08:38:56;;;;;;;7.65;1.45;;;;;;;20.09;56.42;102235.00;5015786;28;20056;-58
2022/06/28 08:41:24;;;;;;;6.57;1.25;;;;;;;20.05;54.63;102230.59;5022093;28;20032;-59
2022/06/28 08:43:50;;;;;;;7.25;1.15;;;;;;;20.19;57.12;102232.47;5019032;28;20516;-59
2022/06/28 08:46:16;;;;;;;5.30;1.25;;;;;;;20.20;54.91;102229.00;5014156;28;20530;-55
2022/06/28 08:48:45;;;;;;;6.97;1.20;;;;;;;20.23;56.84;102219.47;5023896;28;20053;-58
2022/06/28 08:51:11;;;;;;;5.40;1.20;;;;;;;20.38;55.16;102216.13;5011390;28;20026;-58
2022/06/28 08:53:39;;;;;;;9.43;1.45;;;;;;;20.35;55.49;102211.75;5013710;28;20403;-58
2022/06/28 08:56:09;;;;;;;4.35;1.25;;;;;;;20.42;57.15;102214.41;5000053;28;20094;-59
2022/06/28 08:58:36;;;;;;;5.45;1.20;;;;;;;20.46;57.59;102211.88;5015733;28;20492;-59
2022/06/28 09:01:01;;;;;;;9.20;1.75;;;;;;;20.51;53.96;102212.81;5011767;28;20040;-59
2022/06/28 09:03:27;;;;;;;5.65;1.15;;;;;;;20.55;54.29;102211.06;5018630;28;20025;-59
2022/06/28 09:05:52;;;;;;;5.80;1.35;;;;;;;20.63;56.29;102201.56;5021025;28;20030;-58
2022/06/28 09:08:18;;;;;;;4.43;0.93;;;;;;;20.69;54.85;102208.56;5018660;28;20050;-58
2022/06/28 09:10:43;;;;;;;7.25;1.25;;;;;;;20.75;53.73;102204.28;5019479;28;20034;-57
2022/06/28 09:13:12;;;;;;;6.10;1.20;;;;;;;20.85;54.05;102203.47;5002814;28;20382;-59
2022/06/28 09:15:56;;;;;;;6.20;1.13;;;;;;;20.93;55.38;102197.41;5017540;28;20083;-59
2022/06/28 09:18:42;;;;;;;3.58;1.02;;;;;;;20.98;52.95;102200.94;5017912;28;20052;-59
2022/06/28 09:21:11;;;;;;;3.97;0.93;;;;;;;21.12;54.80;102196.69;5016486;28;20029;-59
2022/06/28 09:23:39;;;;;;;3.80;0.90;;;;;;;21.19;54.41;102194.97;5017007;28;20026;-58
2022/06/28 09:26:11;;;;;;;8.07;1.00;;;;;;;21.29;54.85;102189.78;5005565;28;20056;-57
2022/06/28 09:28:43;;;;;;;2.65;1.00;;;;;;;21.33;52.57;102188.09;5004937;28;20367;-58
2022/06/28 09:31:15;;;;;;;5.18;0.93;;;;;;;21.40;53.90;102182.00;5011603;28;20466;-59
2022/06/28 09:33:48;;;;;;;4.07;1.20;;;;;;;21.48;53.86;102189.88;5008191;28;20755;-59
2022/06/28 09:36:16;;;;;;;4.05;0.80;;;;;;;21.55;52.87;102194.28;5010017;28;20049;-59
2022/06/28 09:38:42;;;;;;;4.85;1.15;;;;;;;21.57;52.10;102185.56;5012182;28;20387;-59
2022/06/28 09:41:28;;;;;;;5.70;1.00;;;;;;;21.66;52.48;102177.75;5007213;28;20119;-58
2022/06/28 09:44:03;;;;;;;4.57;0.93;;;;;;;21.75;53.45;102178.66;5005965;28;20120;-58
2022/06/28 09:46:30;;;;;;;4.05;0.90;;;;;;;21.84;52.52;102183.88;5011923;28;20390;-59
2022/06/28 09:48:58;;;;;;;6.50;1.10;;;;;;;21.89;51.80;102177.78;5019583;28;20041;-59
2022/06/28 09:51:25;;;;;;;5.28;1.02;;;;;;;21.82;49.46;102178.66;5021274;28;20111;-57
2022/06/28 09:54:03;;;;;;;3.22;0.70;;;;;;;21.99;52.48;102175.22;5017110;28;20033;-59
2022/06/28 09:56:33;;;;;;;5.22;0.88;;;;;;;22.01;50.66;102165.59;5018461;28;20056;-59
2022/06/28 09:58:59;;;;;;;6.50;0.93;;;;;;;22.04;49.58;102168.22;5016626;28;20026;-58
2022/06/28 10:01:25;;;;;;;3.42;0.77;;;;;;;22.08;49.28;102165.59;5018409;28;20113;-59
2022/06/28 10:03:52;;;;;;;4.38;1.00;;;;;;;22.22;50.17;102163.03;5017675;28;20397;-59
2022/06/28 10:06:21;;;;;;;3.42;0.90;;;;;;;22.26;49.69;102151.66;5022446;28;20068;-60
2022/06/28 10:08:47;;;;;;;8.15;1.10;;;;;;;22.36;49.89;102150.81;5027130;28;20081;-59
2022/06/28 10:11:13;;;;;;;3.78;1.00;;;;;;;22.46;49.76;102149.06;5020028;28;20120;-59
2022/06/28 10:16:23;;;;;;;5.22;0.90;;;;;;;22.69;48.14;102151.63;5019445;28;20536;-59
2022/06/28 10:18:50;;;;;;;3.80;0.80;;;;;;;22.80;49.60;102155.13;5025695;28;20025;-60
2022/06/28 10:21:15;;;;;;;4.65;1.08;;;;;;;22.93;48.48;102150.75;5024282;28;20120;-59
2022/06/28 10:23:46;;;;;;;2.00;0.80;;;;;;;23.00;49.21;102150.75;5024686;28;20565;-59
2022/06/28 10:26:14;;;;;;;4.45;0.90;;;;;;;22.99;47.04;102140.22;5021315;28;20033;-59
2022/06/28 10:28:43;;;;;;;2.90;0.77;;;;;;;23.01;46.53;102143.75;5024039;28;20026;-59
2022/06/28 10:31:21;;;;;;;5.03;0.70;;;;;;;23.17;50.01;102137.53;5018115;28;20025;-59
2022/06/28 10:33:48;;;;;;;5.38;1.00;;;;;;;23.20;46.64;102134.06;5021784;28;20408;-59
2022/06/28 10:36:15;;;;;;;5.47;1.20;;;;;;;23.31;47.95;102134.88;5020795;28;20018;-59
2022/06/28 10:39:00;;;;;;;3.45;0.93;;;;;;;23.43;49.61;102129.56;5023201;28;20549;-59
2022/06/28 10:41:45;;;;;;;4.28;0.90;;;;;;;23.53;49.26;102123.38;5016900;28;20048;-59
2022/06/28 10:44:20;;;;;;;3.42;0.90;;;;;;;23.65;45.71;102130.34;5018445;28;20033;-59
2022/06/28 10:46:49;;;;;;;4.57;1.00;;;;;;;23.73;48.75;102119.81;5018894;28;20447;-59
2022/06/28 10:49:15;;;;;;;4.72;1.00;;;;;;;23.81;47.72;102115.38;5018347;28;20534;-59
2022/06/28 10:52:17;;;;;;;5.90;1.10;;;;;;;24.00;48.28;102126.59;5024103;28;20029;-59
2022/06/28 10:55:08;;;;;;;5.65;1.48;;;;;;;24.05;48.14;102119.56;5012001;28;20136;-59
2022/06/28 10:57:40;;;;;;;5.30;0.82;;;;;;;24.04;46.15;102107.31;5021528;28;20046;-59
2022/06/28 11:00:11;;;;;;;7.07;1.13;;;;;;;24.15;48.47;102112.50;5015474;28;20056;-58
2022/06/28 11:02:52;;;;;;;2.95;0.85;;;;;;;24.17;47.08;102101.06;5018533;28;20120;-59
2022/06/28 11:05:19;;;;;;;3.70;0.88;;;;;;;24.17;45.54;102110.72;5011144;28;20033;-60
2022/06/28 11:08:01;;;;;;;4.80;0.98;;;;;;;24.08;46.11;102096.75;5012919;28;20049;-60
2022/06/28 11:10:27;;;;;;;6.05;1.10;;;;;;;24.02;46.40;102096.81;5012365;28;20033;-60
2022/06/28 11:12:53;;;;;;;2.28;0.70;;;;;;;23.89;46.61;102097.78;5017985;28;20470;-60
2022/06/28 11:15:36;;;;;;;5.55;1.10;;;;;;;23.90;46.13;102093.41;5009991;28;20053;-60
2022/06/28 11:18:02;;;;;;;4.55;1.00;;;;;;;23.84;47.77;102082.94;5016319;28;20245;-59
2022/06/28 11:20:30;;;;;;;5.25;0.90;;;;;;;23.67;45.90;102080.47;5006749;28;20034;-58
2022/06/28 11:22:56;;;;;;;4.10;0.95;;;;;;;23.69;46.57;102076.06;5013768;28;20872;-59
2022/06/28 11:27:19;;;;;;;4.28;0.90;;;;;;;23.76;48.24;102080.38;5014293;28;20560;-56
2022/06/28 11:28:14;;;;;;;4.13;1.17;;;;;;;23.75;47.16;102081.28;5013946;28;20402;-60
2022/06/28 11:30:40;;;;;;;5.65;1.00;;;;;;;23.89;48.55;102075.91;5024319;28;20025;-59
2022/06/28 11:33:08;;;;;;;5.50;1.00;;;;;;;23.86;46.21;102062.81;5016360;28;20061;-60
2022/06/28 11:35:34;;;;;;;2.80;0.90;;;;;;;23.80;46.00;102064.59;5014116;28;20496;-59
2022/06/28 11:38:07;;;;;;;5.68;1.17;;;;;;;23.69;46.19;102062.94;5014155;28;20034;-60